EmailTwitter


Surface observations / United Kingdom / EGLL (03772)

Regions: Quebec | Canada | USA | Europe | France | UK | Elsewhere
Station
Display
Info & Location for EGLL (03772) | Help decoding METAR

Weather Conditions observed on 2020/02/18 at 09:50 UTC at LONDON/HEATHROW, UK (EGLL)

Temperature: 8.0 Celsius.

Dewpoint: 2.0 Celsius.

Relative Humidity: 66%

Windchill Factor: 4.

Winds: Southwest at 24 km/h or 13 knots.

Mean Sea level Pressure: 102.00 kilopascals.

Horizontal visibility: 6.21 statute miles or 9.94 kilometers.

Coded METAR:

EGLL 180950Z AUTO 23013KT 9999 NCD 08/02 Q1020 NOSIG=